createdAt,value
2022-11-18T00:00:23.423Z,0
2022-11-18T00:01:31.471Z,0
2022-11-18T00:02:40.648Z,0
2022-11-18T00:03:49.818Z,0
2022-11-18T00:04:58.995Z,0
2022-11-18T00:06:08.169Z,0
2022-11-18T00:07:17.334Z,0
2022-11-18T00:08:26.510Z,0
2022-11-18T00:09:35.683Z,0
2022-11-18T00:10:44.859Z,0
2022-11-18T00:11:54.066Z,0
2022-11-18T00:13:03.206Z,0
2022-11-18T00:14:12.375Z,0
2022-11-18T00:15:21.605Z,0
2022-11-18T00:16:29.731Z,0
2022-11-18T00:17:38.915Z,0
2022-11-18T00:18:48.087Z,0
2022-11-18T00:19:57.257Z,0
2022-11-18T00:21:05.464Z,0
2022-11-18T00:22:13.710Z,0
2022-11-18T00:23:22.814Z,0
2022-11-18T00:24:32.092Z,0
2022-11-18T00:25:40.192Z,0
2022-11-18T00:26:48.433Z,0
2022-11-18T00:27:57.537Z,0
2022-11-18T00:29:06.708Z,0
2022-11-18T00:30:15.880Z,0
2022-11-18T00:31:25.066Z,0
2022-11-18T00:32:34.234Z,0
2022-11-18T00:33:43.404Z,0
2022-11-18T00:34:52.572Z,0
2022-11-18T00:36:01.767Z,0
2022-11-18T00:37:10.922Z,0
2022-11-18T00:38:20.106Z,0
2022-11-18T00:39:29.302Z,0
2022-11-18T00:40:38.468Z,0
2022-11-18T00:41:46.625Z,0
2022-11-18T00:42:55.826Z,0
2022-11-18T00:44:04.967Z,0
2022-11-18T00:45:14.136Z,0
2022-11-18T00:46:23.315Z,0
2022-11-18T00:47:32.540Z,0
2022-11-18T00:48:41.653Z,0
2022-11-18T00:49:50.857Z,0
2022-11-18T00:51:00.006Z,0
2022-11-18T00:52:09.279Z,0
2022-11-18T00:53:18.359Z,0
2022-11-18T00:54:26.546Z,0
2022-11-18T00:55:34.756Z,0
2022-11-18T00:56:42.930Z,0
2022-11-18T00:57:51.123Z,0
2022-11-18T00:59:00.296Z,0
2022-11-18T01:00:09.510Z,0
2022-11-18T01:01:18.643Z,0
2022-11-18T01:02:27.808Z,0
2022-11-18T01:03:36.988Z,0
2022-11-18T01:04:46.153Z,0
2022-11-18T01:05:55.327Z,0
2022-11-18T01:07:04.499Z,0
2022-11-18T01:08:13.700Z,0
2022-11-18T01:09:22.850Z,0
2022-11-18T01:10:32.030Z,0
2022-11-18T01:11:41.192Z,0
2022-11-18T01:12:49.403Z,0
2022-11-18T01:13:58.688Z,0
2022-11-18T01:15:07.745Z,0
2022-11-18T01:16:16.908Z,0
2022-11-18T01:17:26.087Z,0
2022-11-18T01:18:35.249Z,0
2022-11-18T01:19:44.477Z,0
2022-11-18T01:20:52.614Z,0
2022-11-18T01:22:00.801Z,0
2022-11-18T01:23:08.990Z,0
2022-11-18T01:24:17.193Z,0
2022-11-18T01:25:26.361Z,0
2022-11-18T01:26:35.532Z,0
2022-11-18T01:27:44.718Z,0
2022-11-18T01:28:53.878Z,0
2022-11-18T01:30:03.077Z,0
2022-11-18T01:31:12.222Z,0
2022-11-18T01:32:21.401Z,0
2022-11-18T01:33:30.595Z,0
2022-11-18T01:34:39.743Z,0
2022-11-18T01:35:48.908Z,0
2022-11-18T01:36:58.093Z,0
2022-11-18T01:38:07.259Z,0
2022-11-18T01:39:16.434Z,0
2022-11-18T01:40:24.638Z,0
2022-11-18T01:41:33.828Z,0
2022-11-18T01:42:42.970Z,0
2022-11-18T01:43:52.138Z,0
2022-11-18T01:45:01.356Z,0
2022-11-18T01:46:10.481Z,0
2022-11-18T01:47:19.648Z,0
2022-11-18T01:48:28.836Z,0
2022-11-18T01:49:38.000Z,0
2022-11-18T01:50:47.170Z,0
2022-11-18T01:51:56.348Z,0
2022-11-18T01:53:05.519Z,0
2022-11-18T01:54:14.689Z,0
2022-11-18T01:55:22.883Z,0
2022-11-18T01:56:32.054Z,0
2022-11-18T01:57:41.227Z,0
2022-11-18T01:58:50.409Z,0
2022-11-18T01:59:59.573Z,0
2022-11-18T02:01:08.776Z,0
2022-11-18T02:02:17.945Z,0
2022-11-18T02:03:27.105Z,0
2022-11-18T02:04:36.330Z,0
2022-11-18T02:05:45.489Z,0
2022-11-18T02:06:54.726Z,0
2022-11-18T02:08:03.810Z,0
2022-11-18T02:09:13.011Z,0
2022-11-18T02:10:21.199Z,0
2022-11-18T02:11:30.553Z,0
2022-11-18T02:12:39.530Z,0
2022-11-18T02:13:48.695Z,0
2022-11-18T02:14:56.878Z,0
2022-11-18T02:16:05.212Z,0
2022-11-18T02:17:14.245Z,0
2022-11-18T02:18:23.416Z,0
2022-11-18T02:19:31.617Z,0
2022-11-18T02:20:39.798Z,0
2022-11-18T02:21:48.980Z,0
2022-11-18T02:22:58.148Z,0
2022-11-18T02:24:07.319Z,0
2022-11-18T02:25:16.492Z,0
2022-11-18T02:26:25.671Z,0
2022-11-18T02:27:34.840Z,0
2022-11-18T02:28:44.080Z,0
2022-11-18T02:29:53.182Z,0
2022-11-18T02:31:02.405Z,0
2022-11-18T02:32:11.532Z,0
2022-11-18T02:33:20.702Z,0
2022-11-18T02:34:28.945Z,0
2022-11-18T02:35:38.069Z,0
2022-11-18T02:36:47.267Z,0
2022-11-18T02:37:56.418Z,0
2022-11-18T02:39:05.585Z,0
2022-11-18T02:40:14.780Z,0
2022-11-18T02:41:23.945Z,0
2022-11-18T02:42:33.104Z,0
2022-11-18T02:43:42.282Z,0
2022-11-18T02:44:51.468Z,0
2022-11-18T02:46:00.626Z,0
2022-11-18T02:47:09.811Z,0
2022-11-18T02:48:18.977Z,0
2022-11-18T02:49:27.162Z,0
2022-11-18T02:50:35.368Z,0
2022-11-18T02:51:43.535Z,0
2022-11-18T02:52:52.717Z,0
2022-11-18T02:54:01.894Z,0
2022-11-18T02:55:10.106Z,0
2022-11-18T02:56:18.285Z,0
2022-11-18T02:57:27.468Z,0
2022-11-18T02:58:36.618Z,0
2022-11-18T02:59:45.793Z,0
2022-11-18T03:00:54.972Z,0
2022-11-18T03:02:04.150Z,0
2022-11-18T03:03:13.316Z,0
2022-11-18T03:04:22.488Z,0
2022-11-18T03:05:31.654Z,0
2022-11-18T03:06:40.891Z,0
2022-11-18T03:07:50.080Z,0
2022-11-18T03:08:59.172Z,0
2022-11-18T03:10:08.333Z,0
2022-11-18T03:11:16.534Z,0
2022-11-18T03:12:25.709Z,0
2022-11-18T03:13:34.874Z,0
2022-11-18T03:14:44.050Z,0
2022-11-18T03:15:53.224Z,0
2022-11-18T03:17:02.397Z,0
2022-11-18T03:18:11.571Z,0
2022-11-18T03:19:19.762Z,0
2022-11-18T03:21:37.119Z,0
2022-11-18T03:22:46.301Z,0
2022-11-18T03:23:54.501Z,0
2022-11-18T03:25:02.679Z,0
2022-11-18T03:26:11.856Z,0
2022-11-18T03:27:21.029Z,0
2022-11-18T03:28:30.267Z,0
2022-11-18T03:29:39.366Z,0
2022-11-18T03:30:48.532Z,0
2022-11-18T03:31:57.707Z,0
2022-11-18T03:33:06.908Z,0
2022-11-18T03:34:16.065Z,0
2022-11-18T03:35:25.223Z,0
2022-11-18T03:36:34.402Z,0
2022-11-18T03:37:43.626Z,0
2022-11-18T03:38:52.750Z,0
2022-11-18T03:40:00.948Z,0
2022-11-18T03:41:10.158Z,0
2022-11-18T03:42:19.295Z,0
2022-11-18T03:43:28.457Z,0
2022-11-18T03:44:37.631Z,0
2022-11-18T03:45:46.803Z,0
2022-11-18T03:46:55.975Z,0
2022-11-18T03:48:05.142Z,0
2022-11-18T03:49:14.318Z,0
2022-11-18T03:50:23.504Z,0
2022-11-18T03:51:32.661Z,0
2022-11-18T03:52:41.836Z,0
2022-11-18T03:53:51.005Z,0
2022-11-18T03:54:59.211Z,0
2022-11-18T03:56:08.369Z,0
2022-11-18T03:57:17.545Z,0
2022-11-18T03:58:26.711Z,0
2022-11-18T03:59:35.887Z,0
2022-11-18T04:00:45.067Z,0
2022-11-18T04:01:54.246Z,0
2022-11-18T04:03:03.402Z,0
2022-11-18T04:04:12.578Z,0
2022-11-18T04:05:21.752Z,0
2022-11-18T04:06:30.924Z,0
2022-11-18T04:07:40.100Z,9
2022-11-18T04:08:49.269Z,9
2022-11-18T04:09:57.473Z,9
2022-11-18T04:11:06.626Z,12
2022-11-18T04:12:15.799Z,12
2022-11-18T04:13:24.977Z,9
2022-11-18T04:14:34.186Z,9
2022-11-18T04:15:43.320Z,9
2022-11-18T04:16:52.494Z,9
2022-11-18T04:18:01.656Z,9
2022-11-18T04:19:10.918Z,9
2022-11-18T04:20:20.001Z,9
2022-11-18T04:21:29.173Z,9
2022-11-18T04:22:38.348Z,9
2022-11-18T04:23:47.622Z,9
2022-11-18T04:24:55.736Z,9
2022-11-18T04:26:04.892Z,9
2022-11-18T04:27:14.229Z,9
2022-11-18T04:28:23.227Z,9
2022-11-18T04:29:32.414Z,9
2022-11-18T04:30:41.580Z,9
2022-11-18T04:31:50.751Z,9
2022-11-18T04:32:59.923Z,12
2022-11-18T04:34:08.126Z,12
2022-11-18T04:35:16.328Z,12
2022-11-18T04:36:24.505Z,9
2022-11-18T04:37:32.687Z,9
2022-11-18T04:38:41.870Z,9
2022-11-18T04:39:51.039Z,9
2022-11-18T04:41:00.204Z,9
2022-11-18T04:42:09.385Z,12
2022-11-18T04:43:18.566Z,9
2022-11-18T04:44:27.743Z,12
2022-11-18T04:45:36.906Z,9
2022-11-18T04:46:46.067Z,12
2022-11-18T04:47:55.244Z,9
2022-11-18T04:49:04.407Z,9
2022-11-18T04:50:13.615Z,9
2022-11-18T04:51:22.773Z,12
2022-11-18T04:52:30.953Z,9
2022-11-18T04:53:40.119Z,12
2022-11-18T04:54:49.298Z,12
2022-11-18T04:55:58.473Z,9
2022-11-18T04:57:07.630Z,12
2022-11-18T04:58:16.815Z,9
2022-11-18T04:59:25.997Z,9
2022-11-18T05:00:34.181Z,12
2022-11-18T05:01:42.372Z,12
2022-11-18T05:02:51.545Z,9
2022-11-18T05:04:00.784Z,9
2022-11-18T05:05:08.905Z,9
2022-11-18T05:06:17.107Z,9
2022-11-18T05:07:26.282Z,12
2022-11-18T05:08:35.441Z,9
2022-11-18T05:09:44.656Z,9
2022-11-18T05:10:53.786Z,12
2022-11-18T05:12:02.952Z,9
2022-11-18T05:13:12.203Z,9
2022-11-18T05:14:21.321Z,12
2022-11-18T05:15:30.476Z,9
2022-11-18T05:17:48.820Z,9
2022-11-18T05:18:58.019Z,9
2022-11-18T05:20:07.162Z,9
2022-11-18T05:21:15.364Z,9
2022-11-18T05:22:24.541Z,9
2022-11-18T05:23:33.703Z,9
2022-11-18T05:24:42.866Z,9
2022-11-18T05:25:52.088Z,9
2022-11-18T05:27:01.208Z,12
2022-11-18T05:28:10.506Z,9
2022-11-18T05:29:19.560Z,12
2022-11-18T05:30:28.744Z,9
2022-11-18T05:31:36.927Z,9
2022-11-18T05:32:45.214Z,12
2022-11-18T05:33:54.283Z,9
2022-11-18T05:35:03.463Z,12
2022-11-18T05:36:11.656Z,12
2022-11-18T05:37:19.886Z,9
2022-11-18T05:38:29.059Z,12
2022-11-18T05:39:38.189Z,9
2022-11-18T05:40:47.399Z,9
2022-11-18T05:41:56.540Z,9
2022-11-18T05:43:05.711Z,9
2022-11-18T05:44:14.866Z,12
2022-11-18T05:45:24.100Z,9
2022-11-18T05:46:33.275Z,9
2022-11-18T05:47:42.437Z,9
2022-11-18T05:48:51.554Z,9
2022-11-18T05:50:00.786Z,9
2022-11-18T05:51:10.050Z,9
2022-11-18T05:52:18.170Z,12
2022-11-18T05:53:27.318Z,9
2022-11-18T05:54:36.460Z,9
2022-11-18T05:55:45.622Z,9
2022-11-18T05:56:54.789Z,9
2022-11-18T05:58:03.966Z,12
2022-11-18T05:59:13.130Z,9
2022-11-18T06:00:21.339Z,9
2022-11-18T06:01:29.512Z,12
2022-11-18T06:02:37.711Z,9
2022-11-18T06:03:45.895Z,12
2022-11-18T06:04:55.071Z,9
2022-11-18T06:06:04.238Z,9
2022-11-18T06:07:13.416Z,12
2022-11-18T06:08:22.584Z,9
2022-11-18T06:09:31.759Z,9
2022-11-18T06:10:40.932Z,9
2022-11-18T06:11:50.108Z,12
2022-11-18T06:12:59.388Z,9
2022-11-18T06:14:08.445Z,9
2022-11-18T06:15:17.619Z,9
2022-11-18T06:16:26.800Z,9
2022-11-18T06:17:36.045Z,9
2022-11-18T06:18:44.237Z,12
2022-11-18T06:19:53.328Z,7
2022-11-18T06:21:02.574Z,1
2022-11-18T06:22:11.758Z,4
2022-11-18T06:23:20.892Z,4
2022-11-18T06:24:30.031Z,0
2022-11-18T06:25:38.314Z,4
2022-11-18T06:26:46.412Z,4
2022-11-18T06:27:54.595Z,4
2022-11-18T06:29:02.828Z,4
2022-11-18T06:30:11.055Z,9
2022-11-18T06:31:20.156Z,1
2022-11-18T06:32:29.320Z,9
2022-11-18T06:33:38.583Z,5
2022-11-18T06:34:47.748Z,5
2022-11-18T06:35:56.899Z,5
2022-11-18T06:37:06.012Z,5
2022-11-18T06:38:15.266Z,10
2022-11-18T06:39:24.353Z,10
2022-11-18T06:40:33.536Z,10
2022-11-18T06:42:51.871Z,10
2022-11-18T06:44:01.066Z,23
2022-11-18T06:45:09.237Z,23
2022-11-18T06:46:18.431Z,19
2022-11-18T06:47:27.576Z,15
2022-11-18T06:48:36.823Z,27
2022-11-18T06:49:46.052Z,32
2022-11-18T06:50:55.101Z,23
2022-11-18T06:52:04.270Z,41
2022-11-18T06:53:13.444Z,45
2022-11-18T06:54:22.681Z,50
2022-11-18T06:55:31.850Z,47
2022-11-18T06:56:41.039Z,38
2022-11-18T06:57:50.132Z,68
2022-11-18T06:58:59.306Z,65
2022-11-18T07:00:08.480Z,74
2022-11-18T07:01:16.670Z,75
2022-11-18T07:02:25.861Z,79
2022-11-18T07:03:35.022Z,89
2022-11-18T07:04:44.283Z,98
2022-11-18T07:05:53.362Z,103
2022-11-18T07:07:02.559Z,113
2022-11-18T07:08:11.772Z,132
2022-11-18T07:09:21.000Z,134
2022-11-18T07:10:30.061Z,149
2022-11-18T07:11:39.236Z,152
2022-11-18T07:12:48.389Z,180
2022-11-18T07:13:57.552Z,207
2022-11-18T07:15:06.766Z,230
2022-11-18T07:16:14.946Z,231
2022-11-18T07:17:24.174Z,258
2022-11-18T07:18:33.263Z,280
2022-11-18T07:19:42.446Z,281
2022-11-18T07:20:51.612Z,311
2022-11-18T07:22:00.787Z,309
2022-11-18T07:23:09.959Z,340
2022-11-18T07:24:19.205Z,324
2022-11-18T07:25:28.298Z,363
2022-11-18T07:26:37.568Z,351
2022-11-18T07:27:46.723Z,315
2022-11-18T07:28:55.823Z,364
2022-11-18T07:30:04.999Z,372
2022-11-18T07:31:13.219Z,361
2022-11-18T07:32:22.358Z,370
2022-11-18T07:33:31.532Z,375
2022-11-18T07:34:40.733Z,375
2022-11-18T07:35:49.901Z,372
2022-11-18T07:36:59.041Z,370
2022-11-18T07:38:08.260Z,360
2022-11-18T07:39:17.388Z,414
2022-11-18T07:40:26.603Z,439
2022-11-18T07:41:35.738Z,472
2022-11-18T07:42:45.005Z,471
2022-11-18T07:43:54.079Z,507
2022-11-18T07:45:03.332Z,558
2022-11-18T07:46:11.431Z,523
2022-11-18T07:47:20.662Z,571
2022-11-18T07:48:29.786Z,547
2022-11-18T07:49:38.995Z,590
2022-11-18T07:50:48.127Z,585
2022-11-18T07:51:57.310Z,617
2022-11-18T07:53:06.474Z,588
2022-11-18T07:54:15.644Z,565
2022-11-18T07:55:24.836Z,530
2022-11-18T07:56:33.998Z,528
2022-11-18T07:57:43.218Z,511
2022-11-18T07:58:52.392Z,493
2022-11-18T08:00:01.638Z,496
2022-11-18T08:01:09.889Z,486
2022-11-18T08:02:18.975Z,472
2022-11-18T08:03:28.158Z,475
2022-11-18T08:04:37.325Z,456
2022-11-18T08:05:46.575Z,443
2022-11-18T08:06:55.762Z,426
2022-11-18T08:08:04.818Z,443
2022-11-18T08:09:14.036Z,425
2022-11-18T08:10:23.122Z,438
2022-11-18T08:11:32.503Z,434
2022-11-18T08:12:41.612Z,438
2022-11-18T08:13:50.601Z,459
2022-11-18T08:14:59.908Z,449
2022-11-18T08:16:08.027Z,440
2022-11-18T08:17:17.300Z,422
2022-11-18T08:18:26.307Z,423
2022-11-18T08:19:35.595Z,465
2022-11-18T08:20:44.649Z,477
2022-11-18T08:21:53.887Z,476
2022-11-18T08:23:03.011Z,453
2022-11-18T08:24:12.208Z,463
2022-11-18T08:25:21.335Z,409
2022-11-18T08:26:30.526Z,449
2022-11-18T08:27:39.700Z,399
2022-11-18T08:28:48.860Z,401
2022-11-18T08:29:58.026Z,406
2022-11-18T08:32:15.392Z,451
2022-11-18T08:33:24.567Z,465
2022-11-18T08:34:33.742Z,454
2022-11-18T08:35:42.898Z,466
2022-11-18T08:36:52.085Z,518
2022-11-18T08:38:01.251Z,526
2022-11-18T08:39:10.535Z,505
2022-11-18T08:40:19.597Z,500
2022-11-18T08:41:28.766Z,508
2022-11-18T08:42:37.939Z,499
2022-11-18T08:43:47.133Z,483
2022-11-18T08:44:56.291Z,450
2022-11-18T08:46:04.473Z,466
2022-11-18T08:47:13.655Z,558
2022-11-18T08:48:22.807Z,657
2022-11-18T08:49:32.026Z,716
2022-11-18T08:50:41.170Z,732
2022-11-18T08:51:50.338Z,785
2022-11-18T08:52:59.557Z,784
2022-11-18T08:54:08.715Z,841
2022-11-18T08:55:17.841Z,803
2022-11-18T08:56:27.042Z,815
2022-11-18T08:57:36.188Z,757
2022-11-18T08:58:45.376Z,777
2022-11-18T08:59:54.535Z,758
2022-11-18T09:01:03.709Z,823
2022-11-18T09:02:11.916Z,838
2022-11-18T09:03:21.082Z,892
2022-11-18T09:04:30.430Z,879
2022-11-18T09:05:39.458Z,848
2022-11-18T09:06:48.754Z,904
2022-11-18T09:07:57.906Z,875
2022-11-18T09:09:07.042Z,959
2022-11-18T09:10:16.113Z,954
2022-11-18T09:11:25.288Z,963
2022-11-18T09:12:34.449Z,1023
2022-11-18T09:13:43.627Z,1106
2022-11-18T09:16:01.985Z,1054
2022-11-18T09:17:10.350Z,1051
2022-11-18T09:18:19.323Z,1199
2022-11-18T09:19:28.672Z,1220
2022-11-18T09:20:37.675Z,1267
2022-11-18T09:21:46.997Z,1336
2022-11-18T09:22:56.181Z,1472
2022-11-18T09:24:05.305Z,1738
2022-11-18T09:25:14.536Z,2016
2022-11-18T09:26:23.545Z,2117
2022-11-18T09:27:32.733Z,2206
2022-11-18T09:28:42.053Z,2171
2022-11-18T09:29:51.224Z,2280
2022-11-18T09:31:00.308Z,2475
2022-11-18T09:32:08.453Z,2435
2022-11-18T09:33:17.678Z,2321
2022-11-18T09:35:36.068Z,2285
2022-11-18T09:36:45.272Z,2296
2022-11-18T09:37:54.363Z,2141
2022-11-18T09:39:03.588Z,1962
2022-11-18T09:40:12.765Z,1942
2022-11-18T09:41:21.954Z,1746
2022-11-18T09:42:31.102Z,1482
2022-11-18T09:43:40.151Z,1396
2022-11-18T09:44:49.319Z,1195
2022-11-18T09:45:58.607Z,1205
2022-11-18T09:47:06.837Z,1120
2022-11-18T09:48:15.988Z,1040
2022-11-18T09:49:25.227Z,1041
2022-11-18T09:50:34.354Z,955
2022-11-18T09:51:43.373Z,890
2022-11-18T09:52:52.537Z,970
2022-11-18T09:54:01.928Z,915
2022-11-18T09:55:11.068Z,963
2022-11-18T09:56:20.229Z,906
2022-11-18T09:57:29.411Z,879
2022-11-18T09:58:38.624Z,1096
2022-11-18T09:59:47.759Z,1199
2022-11-18T10:00:56.918Z,1142
2022-11-18T10:02:05.067Z,1402
2022-11-18T10:03:14.128Z,1611
2022-11-18T10:04:23.377Z,1596
2022-11-18T10:05:32.608Z,1580
2022-11-18T10:06:41.800Z,1619
2022-11-18T10:07:50.901Z,1768
2022-11-18T10:09:00.137Z,2244
2022-11-18T10:10:09.307Z,3003
2022-11-18T10:11:18.548Z,2711
2022-11-18T10:12:27.670Z,2730
2022-11-18T10:13:36.935Z,2402
2022-11-18T10:14:46.012Z,2301
2022-11-18T10:15:55.060Z,2319
2022-11-18T10:17:03.426Z,2181
2022-11-18T10:18:12.368Z,2245
2022-11-18T10:19:21.542Z,2064
2022-11-18T10:20:30.923Z,2014
2022-11-18T10:21:39.969Z,1929
2022-11-18T10:22:49.249Z,2196
2022-11-18T10:23:58.234Z,1991
2022-11-18T10:25:07.562Z,2070
2022-11-18T10:26:16.577Z,2097
2022-11-18T10:27:25.959Z,1934
2022-11-18T10:28:34.950Z,1989
2022-11-18T10:29:44.120Z,2048
2022-11-18T10:30:53.513Z,2146
2022-11-18T10:32:01.595Z,1791
2022-11-18T10:33:10.763Z,1752
2022-11-18T10:34:19.939Z,1897
2022-11-18T10:35:29.135Z,1886
2022-11-18T10:36:38.254Z,1908
2022-11-18T10:37:47.336Z,1649
2022-11-18T10:38:56.489Z,1993
2022-11-18T10:40:05.666Z,2284
2022-11-18T10:41:14.985Z,2585
2022-11-18T10:42:23.037Z,2424
2022-11-18T10:43:31.348Z,2357
2022-11-18T10:44:40.391Z,2228
2022-11-18T10:45:49.560Z,2187
2022-11-18T10:46:57.791Z,2273
2022-11-18T10:48:05.951Z,2325
2022-11-18T10:49:15.292Z,2170
2022-11-18T10:50:24.466Z,2171
2022-11-18T10:51:33.630Z,1993
2022-11-18T10:52:42.779Z,1904
2022-11-18T10:53:51.993Z,2007
2022-11-18T10:55:01.189Z,1809
2022-11-18T10:56:10.173Z,1641
2022-11-18T10:57:19.505Z,1450
2022-11-18T10:58:28.694Z,1387
2022-11-18T10:59:37.860Z,1416
2022-11-18T11:00:47.005Z,1392
2022-11-18T11:01:56.151Z,1379
2022-11-18T11:03:04.271Z,1391
2022-11-18T11:04:13.568Z,1467
2022-11-18T11:05:22.681Z,1412
2022-11-18T11:06:31.823Z,1759
2022-11-18T11:07:40.890Z,1806
2022-11-18T11:08:50.098Z,1741
2022-11-18T11:09:59.246Z,1999
2022-11-18T11:11:08.493Z,2001
2022-11-18T11:12:17.584Z,2091
2022-11-18T11:13:26.777Z,1952
2022-11-18T11:14:36.034Z,1918
2022-11-18T11:15:45.100Z,2227
2022-11-18T11:16:54.362Z,2172
2022-11-18T11:18:02.493Z,2054
2022-11-18T11:19:11.640Z,1991
2022-11-18T11:20:20.808Z,1696
2022-11-18T11:21:30.102Z,1538
2022-11-18T11:22:39.156Z,1494
2022-11-18T11:23:48.322Z,1271
2022-11-18T11:24:57.536Z,1361
2022-11-18T11:26:06.675Z,1291
2022-11-18T11:27:15.859Z,1231
2022-11-18T11:28:25.017Z,1261
2022-11-18T11:29:34.198Z,1303
2022-11-18T11:30:43.424Z,1438
2022-11-18T11:31:52.571Z,1395
2022-11-18T11:33:00.731Z,1255
2022-11-18T11:34:10.032Z,1223
2022-11-18T11:35:19.209Z,998
2022-11-18T11:36:28.246Z,991
2022-11-18T11:37:37.537Z,952
2022-11-18T11:38:46.583Z,929
2022-11-18T11:39:55.765Z,910
2022-11-18T11:41:04.945Z,948
2022-11-18T11:42:14.107Z,886
2022-11-18T11:43:23.331Z,820
2022-11-18T11:45:41.627Z,731
2022-11-18T11:46:50.857Z,822
2022-11-18T11:47:59.060Z,833
2022-11-18T11:49:08.273Z,852
2022-11-18T11:50:17.320Z,847
2022-11-18T11:51:26.549Z,875
2022-11-18T11:53:44.929Z,949
2022-11-18T11:54:54.020Z,1135
2022-11-18T11:56:02.237Z,1300
2022-11-18T11:57:10.406Z,1458
2022-11-18T11:58:19.674Z,1448
2022-11-18T11:59:28.740Z,1642
2022-11-18T12:00:38.091Z,1680
2022-11-18T12:01:46.134Z,1592
2022-11-18T12:02:54.324Z,1461
2022-11-18T12:04:03.594Z,1460
2022-11-18T12:05:12.695Z,1444
2022-11-18T12:06:21.844Z,1294
2022-11-18T12:07:31.045Z,1341
2022-11-18T12:08:40.233Z,1330
2022-11-18T12:09:49.341Z,1160
2022-11-18T12:10:58.511Z,1135
2022-11-18T12:12:07.821Z,1269
2022-11-18T12:13:16.851Z,1347
2022-11-18T12:14:26.136Z,1271
2022-11-18T12:15:35.261Z,1297
2022-11-18T12:16:44.450Z,1368
2022-11-18T12:17:52.643Z,1379
2022-11-18T12:19:01.840Z,1381
2022-11-18T12:20:10.919Z,1528
2022-11-18T12:21:20.091Z,1442
2022-11-18T12:22:29.261Z,1418
2022-11-18T12:23:38.504Z,1373
2022-11-18T12:24:47.711Z,1244
2022-11-18T12:25:56.784Z,1131
2022-11-18T12:27:05.958Z,1096
2022-11-18T12:28:15.225Z,1008
2022-11-18T12:29:24.312Z,1138
2022-11-18T12:30:33.476Z,1028
2022-11-18T12:31:42.637Z,983
2022-11-18T12:32:50.832Z,942
2022-11-18T12:33:59.998Z,963
2022-11-18T12:35:09.197Z,956
2022-11-18T12:36:18.343Z,999
2022-11-18T12:37:26.549Z,1127
2022-11-18T12:38:34.824Z,1198
2022-11-18T12:39:43.900Z,1213
2022-11-18T12:40:52.107Z,1282
2022-11-18T12:43:09.507Z,1472
2022-11-18T12:44:18.693Z,1496
2022-11-18T12:45:27.800Z,1470
2022-11-18T12:46:37.053Z,1659
2022-11-18T12:47:46.153Z,1444
2022-11-18T12:48:55.330Z,1394
2022-11-18T12:50:04.485Z,1463
2022-11-18T12:51:13.666Z,1421
2022-11-18T12:52:22.842Z,1319
2022-11-18T12:53:32.001Z,1314
2022-11-18T12:54:41.187Z,1477
2022-11-18T12:55:50.342Z,1409
2022-11-18T12:56:58.545Z,1286
2022-11-18T12:58:07.749Z,1314
2022-11-18T12:59:16.885Z,1235
2022-11-18T13:01:35.226Z,1183
2022-11-18T13:02:44.416Z,1111
2022-11-18T13:03:53.569Z,983
2022-11-18T13:05:02.754Z,1029
2022-11-18T13:07:21.090Z,1073
2022-11-18T13:08:30.513Z,1029
2022-11-18T13:09:39.627Z,1118
2022-11-18T13:10:48.618Z,1188
2022-11-18T13:11:56.871Z,1236
2022-11-18T13:13:05.972Z,1293
2022-11-18T13:14:15.149Z,1254
2022-11-18T13:15:24.315Z,1243
2022-11-18T13:16:33.489Z,1210
2022-11-18T13:17:42.652Z,1226
2022-11-18T13:18:52.041Z,1288
2022-11-18T13:20:01.001Z,1428
2022-11-18T13:21:10.166Z,1420
2022-11-18T13:22:19.347Z,1508
2022-11-18T13:23:28.667Z,1535
2022-11-18T13:24:37.819Z,1187
2022-11-18T13:25:46.863Z,1333
2022-11-18T13:26:55.180Z,1605
2022-11-18T13:28:04.365Z,1763
2022-11-18T13:29:13.534Z,1500
2022-11-18T13:30:22.571Z,1459
2022-11-18T13:31:31.749Z,1400
2022-11-18T13:32:41.000Z,1392
2022-11-18T13:33:50.094Z,1272
2022-11-18T13:34:59.310Z,1602
2022-11-18T13:36:08.428Z,1713
2022-11-18T13:37:17.652Z,1637
2022-11-18T13:38:26.862Z,1708
2022-11-18T13:39:35.944Z,1572
2022-11-18T13:40:45.165Z,1533
2022-11-18T13:41:53.311Z,1598
2022-11-18T13:43:02.581Z,1431
2022-11-18T13:44:11.658Z,1786
2022-11-18T13:45:20.880Z,1799
2022-11-18T13:46:30.004Z,1880
2022-11-18T13:48:48.351Z,1671
2022-11-18T13:49:57.588Z,1624
2022-11-18T13:51:06.788Z,1611
2022-11-18T13:52:15.886Z,1473
2022-11-18T13:53:25.143Z,1024
2022-11-18T13:54:34.208Z,981
2022-11-18T13:55:43.482Z,1076
2022-11-18T13:56:51.616Z,1333
2022-11-18T13:58:00.796Z,1400
2022-11-18T13:59:09.910Z,1219
2022-11-18T14:00:19.078Z,1300
2022-11-18T14:01:28.260Z,1205
2022-11-18T14:02:37.554Z,1234
2022-11-18T14:03:46.696Z,1047
2022-11-18T14:04:55.890Z,918
2022-11-18T14:06:04.967Z,791
2022-11-18T14:07:14.126Z,873
2022-11-18T14:08:22.363Z,1065
2022-11-18T14:09:31.496Z,1665
2022-11-18T14:10:40.660Z,2159
2022-11-18T14:11:49.837Z,1802
2022-11-18T14:12:59.001Z,1296
2022-11-18T14:14:07.278Z,1244
2022-11-18T14:15:15.385Z,1067
2022-11-18T14:16:24.616Z,867
2022-11-18T14:17:33.748Z,1101
2022-11-18T14:18:42.969Z,1135
2022-11-18T14:19:51.108Z,941
2022-11-18T14:20:59.308Z,1157
2022-11-18T14:22:08.474Z,863
2022-11-18T14:23:17.650Z,953
2022-11-18T14:24:26.807Z,1103
2022-11-18T14:25:36.002Z,807
2022-11-18T14:26:45.203Z,1234
2022-11-18T14:27:54.370Z,1260
2022-11-18T14:29:03.515Z,1259
2022-11-18T14:30:12.694Z,1146
2022-11-18T14:31:22.019Z,1038
2022-11-18T14:32:31.057Z,971
2022-11-18T14:33:40.182Z,904
2022-11-18T14:34:49.450Z,930
2022-11-18T14:35:57.552Z,970
2022-11-18T14:37:06.797Z,924
2022-11-18T14:38:15.901Z,894
2022-11-18T14:39:25.110Z,783
2022-11-18T14:40:34.281Z,759
2022-11-18T14:41:43.449Z,706
2022-11-18T14:42:52.683Z,677
2022-11-18T14:44:00.779Z,604
2022-11-18T14:45:09.086Z,569
2022-11-18T14:46:17.348Z,522
2022-11-18T14:47:25.574Z,463
2022-11-18T14:48:34.728Z,412
2022-11-18T14:49:43.841Z,380
2022-11-18T14:50:53.017Z,362
2022-11-18T14:52:02.115Z,347
2022-11-18T14:53:11.212Z,335
2022-11-18T14:54:20.570Z,323
2022-11-18T14:55:29.719Z,316
2022-11-18T14:56:38.962Z,313
2022-11-18T14:57:48.138Z,326
2022-11-18T14:58:57.199Z,335
2022-11-18T15:00:06.375Z,311
2022-11-18T15:01:15.673Z,304
2022-11-18T15:02:24.804Z,300
2022-11-18T15:03:32.871Z,296
2022-11-18T15:04:41.955Z,277
2022-11-18T15:05:51.249Z,255
2022-11-18T15:07:00.415Z,250
2022-11-18T15:08:09.579Z,248
2022-11-18T15:09:18.810Z,239
2022-11-18T15:10:26.949Z,251
2022-11-18T15:11:35.119Z,221
2022-11-18T15:12:44.363Z,224
2022-11-18T15:13:53.511Z,231
2022-11-18T15:15:02.587Z,214
2022-11-18T15:16:11.884Z,213
2022-11-18T15:17:21.043Z,179
2022-11-18T15:18:30.135Z,197
2022-11-18T15:19:39.240Z,186
2022-11-18T15:20:48.542Z,183
2022-11-18T15:21:57.609Z,159
2022-11-18T15:23:06.764Z,164
2022-11-18T15:24:15.983Z,155
2022-11-18T15:25:25.211Z,138
2022-11-18T15:26:33.300Z,134
2022-11-18T15:27:42.470Z,123
2022-11-18T15:28:51.739Z,131
2022-11-18T15:30:00.812Z,136
2022-11-18T15:31:10.169Z,113
2022-11-18T15:32:19.293Z,113
2022-11-18T15:33:28.446Z,98
2022-11-18T15:34:36.625Z,85
2022-11-18T15:35:44.831Z,77
2022-11-18T15:36:52.977Z,79
2022-11-18T15:38:01.257Z,72
2022-11-18T15:39:10.303Z,63
2022-11-18T15:40:19.528Z,62
2022-11-18T15:41:28.777Z,60
2022-11-18T15:42:37.815Z,50
2022-11-18T15:43:47.081Z,50
2022-11-18T15:44:56.259Z,47
2022-11-18T15:46:05.314Z,41
2022-11-18T15:47:14.648Z,36
2022-11-18T15:48:23.729Z,36
2022-11-18T15:49:32.974Z,36
2022-11-18T15:50:42.097Z,23
2022-11-18T15:51:51.368Z,23
2022-11-18T15:52:59.447Z,26
2022-11-18T15:54:08.612Z,26
2022-11-18T15:55:17.791Z,10
2022-11-18T15:56:27.037Z,13
2022-11-18T15:57:36.233Z,20
2022-11-18T15:58:45.276Z,15
2022-11-18T15:59:54.530Z,15
2022-11-18T16:01:03.570Z,15
2022-11-18T16:02:12.883Z,9
2022-11-18T16:03:21.908Z,9
2022-11-18T16:04:31.234Z,15
2022-11-18T16:05:40.249Z,9
2022-11-18T16:06:49.528Z,9
2022-11-18T16:07:57.617Z,12
2022-11-18T16:09:06.928Z,12
2022-11-18T16:10:15.990Z,12
2022-11-18T16:11:25.187Z,9
2022-11-18T16:12:34.377Z,12
2022-11-18T16:13:43.662Z,12
2022-11-18T16:14:52.809Z,12
2022-11-18T16:16:01.889Z,12
2022-11-18T16:17:11.075Z,12
2022-11-18T16:18:20.335Z,9
2022-11-18T16:19:29.450Z,12
2022-11-18T16:21:47.692Z,9
2022-11-18T16:22:55.896Z,12
2022-11-18T16:24:05.214Z,12
2022-11-18T16:25:14.228Z,9